X  CloseMetar Aviation Weather Data     EGLF Farnborough

Temperature

-1°C Temperature

-1°C Dewpoint

100% Humidity



Wind

 3 KM/H

 2 MPH

 1 M/S

 2 KTS



230°
South West
Current Conditions

Mist Mist
Pressure 1008.92 (hPa) - 29.79 (in)
Visibility 1.6 (mi) - 2.5 (km)
Airport
Airport-code EGLF

Location Farnborough 5 (mi)

Metar:
EGLF 170220Z AUTO 23002KT 2500 BR NCD M01/M01 Q1009

Time: 17-11-2019 02:20